sensor_id;sensor_type;location;lat;lon;timestamp;temperature;humidity
21568;DHT22;10944;42.590;12.630;2023-04-24T00:01:48;14.70;95.90
21568;DHT22;10944;42.590;12.630;2023-04-24T00:04:13;14.70;96.20
21568;DHT22;10944;42.590;12.630;2023-04-24T00:06:42;14.70;95.70
21568;DHT22;10944;42.590;12.630;2023-04-24T00:09:09;14.80;95.80
21568;DHT22;10944;42.590;12.630;2023-04-24T00:11:35;14.80;96.50
21568;DHT22;10944;42.590;12.630;2023-04-24T00:14:02;14.60;97.10
21568;DHT22;10944;42.590;12.630;2023-04-24T00:16:28;14.60;95.80
21568;DHT22;10944;42.590;12.630;2023-04-24T00:18:54;14.60;96.20
21568;DHT22;10944;42.590;12.630;2023-04-24T00:21:20;14.60;96.20
21568;DHT22;10944;42.590;12.630;2023-04-24T00:23:46;14.60;95.70
21568;DHT22;10944;42.590;12.630;2023-04-24T00:26:12;14.60;96.10
21568;DHT22;10944;42.590;12.630;2023-04-24T00:28:38;14.60;96.20
21568;DHT22;10944;42.590;12.630;2023-04-24T00:31:04;14.60;95.80
21568;DHT22;10944;42.590;12.630;2023-04-24T00:33:30;14.60;95.90
21568;DHT22;10944;42.590;12.630;2023-04-24T00:35:56;14.70;95.70
21568;DHT22;10944;42.590;12.630;2023-04-24T00:38:21;14.70;95.60
21568;DHT22;10944;42.590;12.630;2023-04-24T00:40:48;14.80;95.60
21568;DHT22;10944;42.590;12.630;2023-04-24T00:43:15;14.80;95.60
21568;DHT22;10944;42.590;12.630;2023-04-24T00:45:41;14.90;96.00
21568;DHT22;10944;42.590;12.630;2023-04-24T00:48:07;14.80;95.60
21568;DHT22;10944;42.590;12.630;2023-04-24T00:50:35;14.80;96.00
21568;DHT22;10944;42.590;12.630;2023-04-24T00:53:01;14.80;96.10
21568;DHT22;10944;42.590;12.630;2023-04-24T00:55:26;14.90;95.80
21568;DHT22;10944;42.590;12.630;2023-04-24T00:57:52;14.90;96.20
21568;DHT22;10944;42.590;12.630;2023-04-24T01:00:19;14.80;96.20
21568;DHT22;10944;42.590;12.630;2023-04-24T01:02:44;14.80;95.70
21568;DHT22;10944;42.590;12.630;2023-04-24T01:05:15;14.80;95.70
21568;DHT22;10944;42.590;12.630;2023-04-24T01:07:44;14.90;95.60
21568;DHT22;10944;42.590;12.630;2023-04-24T01:10:11;15.00;95.60
21568;DHT22;10944;42.590;12.630;2023-04-24T01:12:38;15.00;95.40
21568;DHT22;10944;42.590;12.630;2023-04-24T01:15:04;15.00;96.30
21568;DHT22;10944;42.590;12.630;2023-04-24T01:17:32;15.00;95.60
21568;DHT22;10944;42.590;12.630;2023-04-24T01:19:59;15.00;95.40
21568;DHT22;10944;42.590;12.630;2023-04-24T01:22:25;15.00;96.10
21568;DHT22;10944;42.590;12.630;2023-04-24T01:24:52;15.00;96.30
21568;DHT22;10944;42.590;12.630;2023-04-24T01:27:18;14.90;95.80
21568;DHT22;10944;42.590;12.630;2023-04-24T01:29:45;15.00;96.10
21568;DHT22;10944;42.590;12.630;2023-04-24T01:32:11;15.00;96.50
21568;DHT22;10944;42.590;12.630;2023-04-24T01:34:37;14.80;96.90
21568;DHT22;10944;42.590;12.630;2023-04-24T01:37:03;14.90;96.30
21568;DHT22;10944;42.590;12.630;2023-04-24T01:39:30;14.90;96.80
21568;DHT22;10944;42.590;12.630;2023-04-24T01:41:56;14.90;96.60
21568;DHT22;10944;42.590;12.630;2023-04-24T01:44:22;14.80;96.80
21568;DHT22;10944;42.590;12.630;2023-04-24T01:46:48;14.80;96.10
21568;DHT22;10944;42.590;12.630;2023-04-24T01:49:14;14.90;96.00
21568;DHT22;10944;42.590;12.630;2023-04-24T01:51:40;14.90;96.30
21568;DHT22;10944;42.590;12.630;2023-04-24T01:54:05;15.00;96.30
21568;DHT22;10944;42.590;12.630;2023-04-24T01:56:33;15.00;96.20
21568;DHT22;10944;42.590;12.630;2023-04-24T01:59:00;15.00;96.10
21568;DHT22;10944;42.590;12.630;2023-04-24T02:01:29;15.00;96.20
21568;DHT22;10944;42.590;12.630;2023-04-24T02:03:58;15.00;96.30
21568;DHT22;10944;42.590;12.630;2023-04-24T02:06:23;15.00;96.30
21568;DHT22;10944;42.590;12.630;2023-04-24T02:08:49;15.10;96.30
21568;DHT22;10944;42.590;12.630;2023-04-24T02:11:15;15.00;96.80
21568;DHT22;10944;42.590;12.630;2023-04-24T02:13:42;15.00;96.90
21568;DHT22;10944;42.590;12.630;2023-04-24T02:16:08;15.00;96.50
21568;DHT22;10944;42.590;12.630;2023-04-24T02:18:33;15.00;96.50
21568;DHT22;10944;42.590;12.630;2023-04-24T02:20:59;14.90;97.20
21568;DHT22;10944;42.590;12.630;2023-04-24T02:23:25;14.80;97.70
21568;DHT22;10944;42.590;12.630;2023-04-24T02:25:52;14.80;98.10
21568;DHT22;10944;42.590;12.630;2023-04-24T02:28:19;14.80;97.90
21568;DHT22;10944;42.590;12.630;2023-04-24T02:30:44;14.80;97.90
21568;DHT22;10944;42.590;12.630;2023-04-24T02:33:11;14.70;98.10
21568;DHT22;10944;42.590;12.630;2023-04-24T02:35:37;14.60;98.40
21568;DHT22;10944;42.590;12.630;2023-04-24T02:38:03;14.60;98.70
21568;DHT22;10944;42.590;12.630;2023-04-24T02:40:29;14.60;99.10
21568;DHT22;10944;42.590;12.630;2023-04-24T02:42:55;14.50;98.60
21568;DHT22;10944;42.590;12.630;2023-04-24T02:45:20;14.60;98.70
21568;DHT22;10944;42.590;12.630;2023-04-24T02:47:46;14.60;98.60
21568;DHT22;10944;42.590;12.630;2023-04-24T02:50:12;14.60;99.00
21568;DHT22;10944;42.590;12.630;2023-04-24T02:52:37;14.60;98.70
21568;DHT22;10944;42.590;12.630;2023-04-24T02:55:04;14.50;98.30
21568;DHT22;10944;42.590;12.630;2023-04-24T02:57:30;14.60;98.80
21568;DHT22;10944;42.590;12.630;2023-04-24T02:59:56;14.60;98.60
21568;DHT22;10944;42.590;12.630;2023-04-24T03:02:21;14.50;99.30
21568;DHT22;10944;42.590;12.630;2023-04-24T03:04:47;14.40;99.50
21568;DHT22;10944;42.590;12.630;2023-04-24T03:07:15;14.50;99.00
21568;DHT22;10944;42.590;12.630;2023-04-24T03:09:41;14.50;99.20
21568;DHT22;10944;42.590;12.630;2023-04-24T03:12:08;14.60;99.00
21568;DHT22;10944;42.590;12.630;2023-04-24T03:14:33;14.60;98.60
21568;DHT22;10944;42.590;12.630;2023-04-24T03:17:00;14.70;99.40
21568;DHT22;10944;42.590;12.630;2023-04-24T03:19:26;14.70;99.00
21568;DHT22;10944;42.590;12.630;2023-04-24T03:21:52;14.70;99.10
21568;DHT22;10944;42.590;12.630;2023-04-24T03:24:18;14.60;98.60
21568;DHT22;10944;42.590;12.630;2023-04-24T03:26:43;14.60;98.50
21568;DHT22;10944;42.590;12.630;2023-04-24T03:29:09;14.70;98.70
21568;DHT22;10944;42.590;12.630;2023-04-24T03:31:35;14.70;98.60
21568;DHT22;10944;42.590;12.630;2023-04-24T03:34:00;14.70;98.60
21568;DHT22;10944;42.590;12.630;2023-04-24T03:36:26;14.70;98.30
21568;DHT22;10944;42.590;12.630;2023-04-24T03:38:53;14.80;98.40
21568;DHT22;10944;42.590;12.630;2023-04-24T03:41:18;14.80;98.70
21568;DHT22;10944;42.590;12.630;2023-04-24T03:43:44;14.70;99.00
21568;DHT22;10944;42.590;12.630;2023-04-24T03:46:10;14.70;98.90
21568;DHT22;10944;42.590;12.630;2023-04-24T03:48:36;14.70;99.40
21568;DHT22;10944;42.590;12.630;2023-04-24T03:51:01;14.60;99.60
21568;DHT22;10944;42.590;12.630;2023-04-24T03:53:28;14.60;99.80
21568;DHT22;10944;42.590;12.630;2023-04-24T03:55:53;14.70;99.90
21568;DHT22;10944;42.590;12.630;2023-04-24T03:58:19;14.70;99.90
21568;DHT22;10944;42.590;12.630;2023-04-24T04:00:45;14.60;99.90
21568;DHT22;10944;42.590;12.630;2023-04-24T04:03:13;14.70;99.90
21568;DHT22;10944;42.590;12.630;2023-04-24T04:05:40;14.60;99.90
21568;DHT22;10944;42.590;12.630;2023-04-24T04:08:05;14.70;99.90
21568;DHT22;10944;42.590;12.630;2023-04-24T04:10:31;14.70;99.90
21568;DHT22;10944;42.590;12.630;2023-04-24T04:12:57;14.70;99.90
21568;DHT22;10944;42.590;12.630;2023-04-24T04:15:23;14.70;99.90
21568;DHT22;10944;42.590;12.630;2023-04-24T04:17:49;14.60;99.90
21568;DHT22;10944;42.590;12.630;2023-04-24T04:20:14;14.70;99.90
21568;DHT22;10944;42.590;12.630;2023-04-24T04:22:40;14.70;99.90
21568;DHT22;10944;42.590;12.630;2023-04-24T04:25:06;14.70;99.90
21568;DHT22;10944;42.590;12.630;2023-04-24T04:27:33;14.70;99.90
21568;DHT22;10944;42.590;12.630;2023-04-24T04:30:00;14.70;99.90
21568;DHT22;10944;42.590;12.630;2023-04-24T04:32:36;14.80;99.90
21568;DHT22;10944;42.590;12.630;2023-04-24T04:35:02;14.80;99.90
21568;DHT22;10944;42.590;12.630;2023-04-24T04:37:33;14.80;99.90
21568;DHT22;10944;42.590;12.630;2023-04-24T04:39:59;14.80;99.90
21568;DHT22;10944;42.590;12.630;2023-04-24T04:42:28;14.80;99.90
21568;DHT22;10944;42.590;12.630;2023-04-24T04:44:54;14.80;99.90
21568;DHT22;10944;42.590;12.630;2023-04-24T04:47:22;14.80;99.90
21568;DHT22;10944;42.590;12.630;2023-04-24T04:49:48;14.80;99.90
21568;DHT22;10944;42.590;12.630;2023-04-24T04:52:14;14.70;99.90
21568;DHT22;10944;42.590;12.630;2023-04-24T04:54:42;14.70;99.90
21568;DHT22;10944;42.590;12.630;2023-04-24T04:57:08;14.70;99.90
21568;DHT22;10944;42.590;12.630;2023-04-24T04:59:34;14.80;99.90
21568;DHT22;10944;42.590;12.630;2023-04-24T05:02:00;14.80;99.90
21568;DHT22;10944;42.590;12.630;2023-04-24T05:04:26;14.80;99.90
21568;DHT22;10944;42.590;12.630;2023-04-24T05:06:52;14.80;99.90
21568;DHT22;10944;42.590;12.630;2023-04-24T05:09:18;14.80;99.90
21568;DHT22;10944;42.590;12.630;2023-04-24T05:11:44;14.80;99.90
21568;DHT22;10944;42.590;12.630;2023-04-24T05:14:10;14.70;99.90
21568;DHT22;10944;42.590;12.630;2023-04-24T05:16:35;14.60;99.90
21568;DHT22;10944;42.590;12.630;2023-04-24T05:19:02;14.50;99.90
21568;DHT22;10944;42.590;12.630;2023-04-24T05:21:28;14.50;99.90
21568;DHT22;10944;42.590;12.630;2023-04-24T05:23:54;14.50;99.90
21568;DHT22;10944;42.590;12.630;2023-04-24T05:26:20;14.30;99.90
21568;DHT22;10944;42.590;12.630;2023-04-24T05:28:46;14.20;99.90
21568;DHT22;10944;42.590;12.630;2023-04-24T05:31:11;14.10;99.90
21568;DHT22;10944;42.590;12.630;2023-04-24T05:33:37;14.10;99.90
21568;DHT22;10944;42.590;12.630;2023-04-24T05:36:03;14.10;99.90
21568;DHT22;10944;42.590;12.630;2023-04-24T05:38:30;14.10;99.90
21568;DHT22;10944;42.590;12.630;2023-04-24T05:40:56;14.00;99.90
21568;DHT22;10944;42.590;12.630;2023-04-24T05:43:22;13.80;99.90
21568;DHT22;10944;42.590;12.630;2023-04-24T05:45:48;13.60;99.90
21568;DHT22;10944;42.590;12.630;2023-04-24T05:48:13;13.60;99.90
21568;DHT22;10944;42.590;12.630;2023-04-24T05:50:39;13.30;99.90
21568;DHT22;10944;42.590;12.630;2023-04-24T05:53:05;13.40;99.90
21568;DHT22;10944;42.590;12.630;2023-04-24T05:55:32;13.50;99.90
21568;DHT22;10944;42.590;12.630;2023-04-24T05:57:58;13.50;99.90
21568;DHT22;10944;42.590;12.630;2023-04-24T06:00:24;13.50;99.90
21568;DHT22;10944;42.590;12.630;2023-04-24T06:02:51;13.50;99.90
21568;DHT22;10944;42.590;12.630;2023-04-24T06:05:18;13.50;99.90
21568;DHT22;10944;42.590;12.630;2023-04-24T06:07:44;13.20;99.90
21568;DHT22;10944;42.590;12.630;2023-04-24T06:10:10;13.40;99.90
21568;DHT22;10944;42.590;12.630;2023-04-24T06:12:36;13.50;99.90
21568;DHT22;10944;42.590;12.630;2023-04-24T06:15:02;13.40;99.90
21568;DHT22;10944;42.590;12.630;2023-04-24T06:17:28;13.40;99.90
21568;DHT22;10944;42.590;12.630;2023-04-24T06:19:54;13.40;99.90
21568;DHT22;10944;42.590;12.630;2023-04-24T06:22:20;13.40;99.90
21568;DHT22;10944;42.590;12.630;2023-04-24T06:24:45;13.40;99.90
21568;DHT22;10944;42.590;12.630;2023-04-24T06:27:12;13.50;99.90
21568;DHT22;10944;42.590;12.630;2023-04-24T06:29:38;13.50;99.90
21568;DHT22;10944;42.590;12.630;2023-04-24T06:32:03;13.40;99.90
21568;DHT22;10944;42.590;12.630;2023-04-24T06:34:29;13.30;99.90
21568;DHT22;10944;42.590;12.630;2023-04-24T06:36:56;13.20;99.90
21568;DHT22;10944;42.590;12.630;2023-04-24T06:39:22;13.30;99.90
21568;DHT22;10944;42.590;12.630;2023-04-24T06:41:47;13.20;99.90
21568;DHT22;10944;42.590;12.630;2023-04-24T06:44:13;13.20;99.90
21568;DHT22;10944;42.590;12.630;2023-04-24T06:46:40;13.30;99.90
21568;DHT22;10944;42.590;12.630;2023-04-24T06:49:06;13.40;99.90
21568;DHT22;10944;42.590;12.630;2023-04-24T06:51:32;13.50;99.90
21568;DHT22;10944;42.590;12.630;2023-04-24T06:53:58;13.70;99.90
21568;DHT22;10944;42.590;12.630;2023-04-24T06:56:25;13.80;99.90
21568;DHT22;10944;42.590;12.630;2023-04-24T06:58:52;14.10;99.90
21568;DHT22;10944;42.590;12.630;2023-04-24T07:01:18;14.30;99.90
21568;DHT22;10944;42.590;12.630;2023-04-24T07:03:44;14.50;99.90
21568;DHT22;10944;42.590;12.630;2023-04-24T07:06:10;14.60;99.90
21568;DHT22;10944;42.590;12.630;2023-04-24T07:08:39;14.70;99.90
21568;DHT22;10944;42.590;12.630;2023-04-24T07:11:07;14.70;99.90
21568;DHT22;10944;42.590;12.630;2023-04-24T07:13:32;14.70;99.90
21568;DHT22;10944;42.590;12.630;2023-04-24T07:16:00;14.70;99.90
21568;DHT22;10944;42.590;12.630;2023-04-24T07:18:26;14.60;99.90
21568;DHT22;10944;42.590;12.630;2023-04-24T07:20:52;14.60;99.90
21568;DHT22;10944;42.590;12.630;2023-04-24T07:23:18;14.40;99.90
21568;DHT22;10944;42.590;12.630;2023-04-24T07:25:44;14.20;99.90
21568;DHT22;10944;42.590;12.630;2023-04-24T07:28:09;14.20;99.90
21568;DHT22;10944;42.590;12.630;2023-04-24T07:30:35;14.10;99.90
21568;DHT22;10944;42.590;12.630;2023-04-24T07:33:01;14.10;99.90
21568;DHT22;10944;42.590;12.630;2023-04-24T07:35:27;14.00;99.90
21568;DHT22;10944;42.590;12.630;2023-04-24T07:37:55;13.90;99.90
21568;DHT22;10944;42.590;12.630;2023-04-24T07:40:22;14.00;99.90
21568;DHT22;10944;42.590;12.630;2023-04-24T07:42:48;14.10;99.90
21568;DHT22;10944;42.590;12.630;2023-04-24T07:45:16;14.10;99.90
21568;DHT22;10944;42.590;12.630;2023-04-24T07:47:42;14.30;99.90
21568;DHT22;10944;42.590;12.630;2023-04-24T07:50:12;14.40;99.90
21568;DHT22;10944;42.590;12.630;2023-04-24T07:52:40;14.40;99.90
21568;DHT22;10944;42.590;12.630;2023-04-24T07:55:06;14.40;99.90
21568;DHT22;10944;42.590;12.630;2023-04-24T07:57:32;14.30;99.90
21568;DHT22;10944;42.590;12.630;2023-04-24T07:59:58;14.20;99.90
21568;DHT22;10944;42.590;12.630;2023-04-24T08:02:23;14.10;99.90
21568;DHT22;10944;42.590;12.630;2023-04-24T08:04:54;14.10;99.90
21568;DHT22;10944;42.590;12.630;2023-04-24T08:07:21;14.20;99.90
21568;DHT22;10944;42.590;12.630;2023-04-24T08:09:47;14.00;99.90
21568;DHT22;10944;42.590;12.630;2023-04-24T08:12:12;14.00;99.90
21568;DHT22;10944;42.590;12.630;2023-04-24T08:14:38;13.90;99.90
21568;DHT22;10944;42.590;12.630;2023-04-24T08:17:04;14.00;99.90
21568;DHT22;10944;42.590;12.630;2023-04-24T08:19:29;14.00;99.90
21568;DHT22;10944;42.590;12.630;2023-04-24T08:21:55;14.00;99.90
21568;DHT22;10944;42.590;12.630;2023-04-24T08:24:22;14.00;99.90
21568;DHT22;10944;42.590;12.630;2023-04-24T08:26:48;14.20;99.90
21568;DHT22;10944;42.590;12.630;2023-04-24T08:29:19;14.40;99.90
21568;DHT22;10944;42.590;12.630;2023-04-24T08:31:45;14.60;99.90
21568;DHT22;10944;42.590;12.630;2023-04-24T08:34:10;14.90;99.90
21568;DHT22;10944;42.590;12.630;2023-04-24T08:36:37;15.20;99.90
21568;DHT22;10944;42.590;12.630;2023-04-24T08:39:03;15.40;99.90
21568;DHT22;10944;42.590;12.630;2023-04-24T08:41:30;15.40;99.90
21568;DHT22;10944;42.590;12.630;2023-04-24T08:43:56;15.50;99.90
21568;DHT22;10944;42.590;12.630;2023-04-24T08:46:24;15.50;99.90
21568;DHT22;10944;42.590;12.630;2023-04-24T08:48:52;15.50;99.90
21568;DHT22;10944;42.590;12.630;2023-04-24T08:51:18;15.20;99.90
21568;DHT22;10944;42.590;12.630;2023-04-24T08:53:44;15.00;99.90
21568;DHT22;10944;42.590;12.630;2023-04-24T08:56:11;14.90;99.90
21568;DHT22;10944;42.590;12.630;2023-04-24T08:58:38;14.80;99.90
21568;DHT22;10944;42.590;12.630;2023-04-24T09:01:04;14.80;99.90
21568;DHT22;10944;42.590;12.630;2023-04-24T09:03:31;14.90;99.90
21568;DHT22;10944;42.590;12.630;2023-04-24T09:05:59;15.10;99.90
21568;DHT22;10944;42.590;12.630;2023-04-24T09:08:26;15.20;99.90
21568;DHT22;10944;42.590;12.630;2023-04-24T09:10:53;15.10;99.90
21568;DHT22;10944;42.590;12.630;2023-04-24T09:13:20;15.00;99.90
21568;DHT22;10944;42.590;12.630;2023-04-24T09:15:45;14.90;99.90
21568;DHT22;10944;42.590;12.630;2023-04-24T09:18:11;14.90;99.90
21568;DHT22;10944;42.590;12.630;2023-04-24T09:23:27;15.10;99.90
21568;DHT22;10944;42.590;12.630;2023-04-24T09:25:58;15.30;99.90
21568;DHT22;10944;42.590;12.630;2023-04-24T09:28:31;15.50;99.90
21568;DHT22;10944;42.590;12.630;2023-04-24T09:33:30;16.70;99.90
21568;DHT22;10944;42.590;12.630;2023-04-24T09:35:56;17.00;99.90
21568;DHT22;10944;42.590;12.630;2023-04-24T09:38:38;16.90;99.90
21568;DHT22;10944;42.590;12.630;2023-04-24T09:41:08;16.70;99.90
21568;DHT22;10944;42.590;12.630;2023-04-24T09:43:35;16.60;99.90
21568;DHT22;10944;42.590;12.630;2023-04-24T09:46:06;16.50;99.90
21568;DHT22;10944;42.590;12.630;2023-04-24T09:48:33;16.40;99.90
21568;DHT22;10944;42.590;12.630;2023-04-24T09:51:01;16.10;99.90
21568;DHT22;10944;42.590;12.630;2023-04-24T09:53:27;16.00;99.90
21568;DHT22;10944;42.590;12.630;2023-04-24T09:55:53;16.00;99.90
21568;DHT22;10944;42.590;12.630;2023-04-24T09:58:25;16.10;99.90
21568;DHT22;10944;42.590;12.630;2023-04-24T10:00:54;16.40;99.90
21568;DHT22;10944;42.590;12.630;2023-04-24T10:03:20;17.00;99.90
21568;DHT22;10944;42.590;12.630;2023-04-24T10:05:47;17.10;99.90
21568;DHT22;10944;42.590;12.630;2023-04-24T10:08:13;17.10;99.90
21568;DHT22;10944;42.590;12.630;2023-04-24T10:10:44;17.20;99.90
21568;DHT22;10944;42.590;12.630;2023-04-24T10:13:11;17.40;99.90
21568;DHT22;10944;42.590;12.630;2023-04-24T10:15:38;17.60;99.90
21568;DHT22;10944;42.590;12.630;2023-04-24T10:18:08;17.50;99.90
21568;DHT22;10944;42.590;12.630;2023-04-24T10:20:35;17.20;99.90
21568;DHT22;10944;42.590;12.630;2023-04-24T10:23:02;17.00;99.90
21568;DHT22;10944;42.590;12.630;2023-04-24T10:25:33;17.00;99.90
21568;DHT22;10944;42.590;12.630;2023-04-24T10:28:01;17.00;99.90
21568;DHT22;10944;42.590;12.630;2023-04-24T10:30:29;17.10;99.90
21568;DHT22;10944;42.590;12.630;2023-04-24T10:32:55;17.10;99.90
21568;DHT22;10944;42.590;12.630;2023-04-24T10:35:22;17.00;99.90
21568;DHT22;10944;42.590;12.630;2023-04-24T10:37:56;16.70;99.90
21568;DHT22;10944;42.590;12.630;2023-04-24T10:40:42;16.60;99.90
21568;DHT22;10944;42.590;12.630;2023-04-24T10:43:08;16.60;99.90
21568;DHT22;10944;42.590;12.630;2023-04-24T10:45:38;16.60;99.90
21568;DHT22;10944;42.590;12.630;2023-04-24T10:48:06;16.60;99.90
21568;DHT22;10944;42.590;12.630;2023-04-24T10:50:43;16.70;99.90
21568;DHT22;10944;42.590;12.630;2023-04-24T10:53:28;16.70;99.90
21568;DHT22;10944;42.590;12.630;2023-04-24T10:58:47;16.60;99.90
21568;DHT22;10944;42.590;12.630;2023-04-24T11:01:28;16.60;99.90
21568;DHT22;10944;42.590;12.630;2023-04-24T11:03:56;16.60;99.90
21568;DHT22;10944;42.590;12.630;2023-04-24T11:06:37;16.50;99.90
21568;DHT22;10944;42.590;12.630;2023-04-24T11:09:07;16.40;99.90
21568;DHT22;10944;42.590;12.630;2023-04-24T11:11:35;16.40;99.90
21568;DHT22;10944;42.590;12.630;2023-04-24T11:14:05;16.20;99.90
21568;DHT22;10944;42.590;12.630;2023-04-24T11:16:43;16.20;99.90
21568;DHT22;10944;42.590;12.630;2023-04-24T11:22:05;15.90;99.90
21568;DHT22;10944;42.590;12.630;2023-04-24T11:24:49;15.80;99.90
21568;DHT22;10944;42.590;12.630;2023-04-24T11:27:20;15.70;99.90
21568;DHT22;10944;42.590;12.630;2023-04-24T11:32:33;15.60;99.90
21568;DHT22;10944;42.590;12.630;2023-04-24T11:35:15;15.60;99.90
21568;DHT22;10944;42.590;12.630;2023-04-24T11:37:47;15.40;99.90
21568;DHT22;10944;42.590;12.630;2023-04-24T11:40:17;15.20;99.90
21568;DHT22;10944;42.590;12.630;2023-04-24T11:42:47;15.30;99.90
21568;DHT22;10944;42.590;12.630;2023-04-24T11:45:22;15.50;99.90
21568;DHT22;10944;42.590;12.630;2023-04-24T11:47:48;16.20;99.90
21568;DHT22;10944;42.590;12.630;2023-04-24T11:50:16;16.90;99.90
21568;DHT22;10944;42.590;12.630;2023-04-24T11:52:44;16.80;99.90
21568;DHT22;10944;42.590;12.630;2023-04-24T11:57:54;16.40;99.90
21568;DHT22;10944;42.590;12.630;2023-04-24T12:00:22;16.60;99.90
21568;DHT22;10944;42.590;12.630;2023-04-24T12:02:49;16.90;99.90
21568;DHT22;10944;42.590;12.630;2023-04-24T12:05:26;17.00;99.90
21568;DHT22;10944;42.590;12.630;2023-04-24T12:07:52;17.00;99.90
21568;DHT22;10944;42.590;12.630;2023-04-24T12:10:22;17.00;99.90
21568;DHT22;10944;42.590;12.630;2023-04-24T12:12:49;17.00;99.90
21568;DHT22;10944;42.590;12.630;2023-04-24T12:15:17;17.10;99.90
21568;DHT22;10944;42.590;12.630;2023-04-24T12:17:43;17.50;99.90
21568;DHT22;10944;42.590;12.630;2023-04-24T12:20:10;18.00;99.90
21568;DHT22;10944;42.590;12.630;2023-04-24T12:22:48;18.40;99.90
21568;DHT22;10944;42.590;12.630;2023-04-24T12:25:16;18.60;99.90
21568;DHT22;10944;42.590;12.630;2023-04-24T12:27:42;18.60;99.90
21568;DHT22;10944;42.590;12.630;2023-04-24T12:30:16;18.60;99.90
21568;DHT22;10944;42.590;12.630;2023-04-24T12:32:49;18.30;99.90
21568;DHT22;10944;42.590;12.630;2023-04-24T12:35:23;17.80;99.90
21568;DHT22;10944;42.590;12.630;2023-04-24T12:37:50;17.60;99.90
21568;DHT22;10944;42.590;12.630;2023-04-24T12:40:17;17.40;99.90
21568;DHT22;10944;42.590;12.630;2023-04-24T12:42:50;17.20;99.90
21568;DHT22;10944;42.590;12.630;2023-04-24T12:45:19;17.20;99.90
21568;DHT22;10944;42.590;12.630;2023-04-24T12:47:45;17.40;99.90
21568;DHT22;10944;42.590;12.630;2023-04-24T12:50:15;17.50;99.90
21568;DHT22;10944;42.590;12.630;2023-04-24T12:52:42;17.50;99.90
21568;DHT22;10944;42.590;12.630;2023-04-24T12:55:08;17.70;99.90
21568;DHT22;10944;42.590;12.630;2023-04-24T12:57:36;17.90;99.90
21568;DHT22;10944;42.590;12.630;2023-04-24T13:00:03;18.20;99.90
21568;DHT22;10944;42.590;12.630;2023-04-24T13:02:30;18.60;99.90
21568;DHT22;10944;42.590;12.630;2023-04-24T13:04:57;18.70;99.90
21568;DHT22;10944;42.590;12.630;2023-04-24T13:07:23;18.60;99.90
21568;DHT22;10944;42.590;12.630;2023-04-24T13:09:50;18.50;99.90
21568;DHT22;10944;42.590;12.630;2023-04-24T13:12:16;18.50;99.90
21568;DHT22;10944;42.590;12.630;2023-04-24T13:14:41;18.40;99.90
21568;DHT22;10944;42.590;12.630;2023-04-24T13:17:07;18.50;99.90
21568;DHT22;10944;42.590;12.630;2023-04-24T13:19:39;18.80;99.90
21568;DHT22;10944;42.590;12.630;2023-04-24T13:22:06;19.00;99.90
21568;DHT22;10944;42.590;12.630;2023-04-24T13:24:33;19.00;99.90
21568;DHT22;10944;42.590;12.630;2023-04-24T13:26:59;19.20;99.90
21568;DHT22;10944;42.590;12.630;2023-04-24T13:29:25;19.40;99.90
21568;DHT22;10944;42.590;12.630;2023-04-24T13:31:51;19.40;99.90
21568;DHT22;10944;42.590;12.630;2023-04-24T13:34:19;19.30;99.90
21568;DHT22;10944;42.590;12.630;2023-04-24T13:36:45;19.10;99.90
21568;DHT22;10944;42.590;12.630;2023-04-24T13:39:11;18.80;99.90
21568;DHT22;10944;42.590;12.630;2023-04-24T13:41:37;18.90;99.90
21568;DHT22;10944;42.590;12.630;2023-04-24T13:44:03;19.20;99.90
21568;DHT22;10944;42.590;12.630;2023-04-24T13:46:29;19.50;99.90
21568;DHT22;10944;42.590;12.630;2023-04-24T13:48:56;19.60;99.90
21568;DHT22;10944;42.590;12.630;2023-04-24T13:51:23;19.40;99.90
21568;DHT22;10944;42.590;12.630;2023-04-24T13:53:48;19.10;99.90
21568;DHT22;10944;42.590;12.630;2023-04-24T13:56:14;18.80;99.90
21568;DHT22;10944;42.590;12.630;2023-04-24T13:58:40;18.60;99.90
21568;DHT22;10944;42.590;12.630;2023-04-24T14:01:06;18.60;99.90
21568;DHT22;10944;42.590;12.630;2023-04-24T14:03:33;18.90;99.90
21568;DHT22;10944;42.590;12.630;2023-04-24T14:05:59;19.30;99.90
21568;DHT22;10944;42.590;12.630;2023-04-24T14:08:25;19.50;99.90
21568;DHT22;10944;42.590;12.630;2023-04-24T14:10:51;19.80;99.90
21568;DHT22;10944;42.590;12.630;2023-04-24T14:13:17;19.90;99.90
21568;DHT22;10944;42.590;12.630;2023-04-24T14:15:43;20.00;99.90
21568;DHT22;10944;42.590;12.630;2023-04-24T14:18:08;19.90;99.90
21568;DHT22;10944;42.590;12.630;2023-04-24T14:20:34;19.70;99.90
21568;DHT22;10944;42.590;12.630;2023-04-24T14:23:01;19.60;99.90
21568;DHT22;10944;42.590;12.630;2023-04-24T14:25:27;19.70;99.90
21568;DHT22;10944;42.590;12.630;2023-04-24T14:27:53;19.70;99.90
21568;DHT22;10944;42.590;12.630;2023-04-24T14:30:19;19.60;99.90
21568;DHT22;10944;42.590;12.630;2023-04-24T14:32:44;19.60;99.90
21568;DHT22;10944;42.590;12.630;2023-04-24T14:35:10;19.50;99.90
21568;DHT22;10944;42.590;12.630;2023-04-24T14:37:36;19.60;99.80
21568;DHT22;10944;42.590;12.630;2023-04-24T14:40:03;19.70;99.10
21568;DHT22;10944;42.590;12.630;2023-04-24T14:42:30;19.60;98.60
21568;DHT22;10944;42.590;12.630;2023-04-24T14:44:56;19.60;99.00
21568;DHT22;10944;42.590;12.630;2023-04-24T14:47:21;19.60;98.70
21568;DHT22;10944;42.590;12.630;2023-04-24T14:49:48;19.60;98.30
21568;DHT22;10944;42.590;12.630;2023-04-24T14:52:14;19.60;98.30
21568;DHT22;10944;42.590;12.630;2023-04-24T14:54:39;19.60;97.30
21568;DHT22;10944;42.590;12.630;2023-04-24T14:57:05;19.70;98.60
21568;DHT22;10944;42.590;12.630;2023-04-24T14:59:31;19.70;96.90
21568;DHT22;10944;42.590;12.630;2023-04-24T15:01:57;19.70;95.90
21568;DHT22;10944;42.590;12.630;2023-04-24T15:04:26;19.90;97.10
21568;DHT22;10944;42.590;12.630;2023-04-24T15:06:53;20.10;95.80
21568;DHT22;10944;42.590;12.630;2023-04-24T15:09:23;20.40;93.80
21568;DHT22;10944;42.590;12.630;2023-04-24T15:11:50;20.40;93.90
21568;DHT22;10944;42.590;12.630;2023-04-24T15:14:17;20.40;92.70
21568;DHT22;10944;42.590;12.630;2023-04-24T15:16:43;20.30;93.30
21568;DHT22;10944;42.590;12.630;2023-04-24T15:19:09;20.30;92.70
21568;DHT22;10944;42.590;12.630;2023-04-24T15:21:36;20.20;91.80
21568;DHT22;10944;42.590;12.630;2023-04-24T15:24:02;20.20;92.80
21568;DHT22;10944;42.590;12.630;2023-04-24T15:26:28;20.40;92.90
21568;DHT22;10944;42.590;12.630;2023-04-24T15:28:53;20.50;92.30
21568;DHT22;10944;42.590;12.630;2023-04-24T15:31:22;20.50;91.60